sensor_id;sensor_type;location;lat;lon;timestamp;temperature;humidity
6377;DHT22;3221;48.858;10.128;2024-01-16T00:00:40;-2.50;99.90
6377;DHT22;3221;48.858;10.128;2024-01-16T00:03:07;-2.50;99.90
6377;DHT22;3221;48.858;10.128;2024-01-16T00:05:34;-2.50;99.90
6377;DHT22;3221;48.858;10.128;2024-01-16T00:08:01;-2.50;99.90
6377;DHT22;3221;48.858;10.128;2024-01-16T00:10:28;-2.60;99.90
6377;DHT22;3221;48.858;10.128;2024-01-16T00:12:54;-2.50;99.90
6377;DHT22;3221;48.858;10.128;2024-01-16T00:15:21;-2.60;99.90
6377;DHT22;3221;48.858;10.128;2024-01-16T00:17:48;-2.50;99.90
6377;DHT22;3221;48.858;10.128;2024-01-16T00:20:15;-2.50;99.90
6377;DHT22;3221;48.858;10.128;2024-01-16T00:22:42;-2.50;99.90
6377;DHT22;3221;48.858;10.128;2024-01-16T00:25:09;-2.60;99.90
6377;DHT22;3221;48.858;10.128;2024-01-16T00:27:36;-2.60;99.90
6377;DHT22;3221;48.858;10.128;2024-01-16T00:30:04;-2.60;99.90
6377;DHT22;3221;48.858;10.128;2024-01-16T00:32:31;-2.60;99.90
6377;DHT22;3221;48.858;10.128;2024-01-16T00:34:58;-2.60;99.90
6377;DHT22;3221;48.858;10.128;2024-01-16T00:37:25;-2.60;99.90
6377;DHT22;3221;48.858;10.128;2024-01-16T00:39:52;-2.50;99.90
6377;DHT22;3221;48.858;10.128;2024-01-16T00:42:19;-2.60;99.90
6377;DHT22;3221;48.858;10.128;2024-01-16T00:44:46;-2.60;99.90
6377;DHT22;3221;48.858;10.128;2024-01-16T00:47:13;-2.60;99.90
6377;DHT22;3221;48.858;10.128;2024-01-16T00:49:40;-2.50;99.90
6377;DHT22;3221;48.858;10.128;2024-01-16T00:52:07;-2.40;99.90
6377;DHT22;3221;48.858;10.128;2024-01-16T00:54:34;-2.50;99.90
6377;DHT22;3221;48.858;10.128;2024-01-16T00:57:01;-2.50;99.90
6377;DHT22;3221;48.858;10.128;2024-01-16T00:59:28;-2.60;99.90
6377;DHT22;3221;48.858;10.128;2024-01-16T01:01:55;-2.60;99.90
6377;DHT22;3221;48.858;10.128;2024-01-16T01:04:22;-2.50;99.90
6377;DHT22;3221;48.858;10.128;2024-01-16T01:06:49;-2.50;99.90
6377;DHT22;3221;48.858;10.128;2024-01-16T01:09:16;-2.50;99.90
6377;DHT22;3221;48.858;10.128;2024-01-16T01:11:43;-2.50;99.90
6377;DHT22;3221;48.858;10.128;2024-01-16T01:14:10;-2.50;99.90
6377;DHT22;3221;48.858;10.128;2024-01-16T01:16:37;-2.60;99.90
6377;DHT22;3221;48.858;10.128;2024-01-16T01:19:04;-2.60;99.90
6377;DHT22;3221;48.858;10.128;2024-01-16T01:21:31;-2.60;99.90
6377;DHT22;3221;48.858;10.128;2024-01-16T01:23:58;-2.60;99.90
6377;DHT22;3221;48.858;10.128;2024-01-16T01:26:25;-2.60;99.90
6377;DHT22;3221;48.858;10.128;2024-01-16T01:28:52;-2.70;99.90
6377;DHT22;3221;48.858;10.128;2024-01-16T01:31:19;-2.60;99.90
6377;DHT22;3221;48.858;10.128;2024-01-16T01:33:46;-2.60;99.90
6377;DHT22;3221;48.858;10.128;2024-01-16T01:36:14;-2.60;99.90
6377;DHT22;3221;48.858;10.128;2024-01-16T01:38:41;-2.50;99.90
6377;DHT22;3221;48.858;10.128;2024-01-16T01:41:08;-2.60;99.90
6377;DHT22;3221;48.858;10.128;2024-01-16T01:43:35;-2.60;99.90
6377;DHT22;3221;48.858;10.128;2024-01-16T01:46:17;-2.60;99.90
6377;DHT22;3221;48.858;10.128;2024-01-16T01:48:46;-2.60;99.90
6377;DHT22;3221;48.858;10.128;2024-01-16T01:51:19;-2.70;99.90
6377;DHT22;3221;48.858;10.128;2024-01-16T01:53:48;-2.60;99.90
6377;DHT22;3221;48.858;10.128;2024-01-16T01:56:20;-2.60;99.90
6377;DHT22;3221;48.858;10.128;2024-01-16T01:58:51;-2.70;99.90
6377;DHT22;3221;48.858;10.128;2024-01-16T02:01:20;-2.60;99.90
6377;DHT22;3221;48.858;10.128;2024-01-16T02:03:50;-2.60;99.90
6377;DHT22;3221;48.858;10.128;2024-01-16T02:06:17;-2.60;99.90
6377;DHT22;3221;48.858;10.128;2024-01-16T02:08:45;-2.70;99.90
6377;DHT22;3221;48.858;10.128;2024-01-16T02:11:12;-2.80;99.90
6377;DHT22;3221;48.858;10.128;2024-01-16T02:13:39;-2.80;99.90
6377;DHT22;3221;48.858;10.128;2024-01-16T02:16:17;-2.60;99.90
6377;DHT22;3221;48.858;10.128;2024-01-16T02:18:44;-2.60;99.90
6377;DHT22;3221;48.858;10.128;2024-01-16T02:21:12;-2.70;99.90
6377;DHT22;3221;48.858;10.128;2024-01-16T02:23:42;-2.60;99.90
6377;DHT22;3221;48.858;10.128;2024-01-16T02:26:09;-2.60;99.90
6377;DHT22;3221;48.858;10.128;2024-01-16T02:28:36;-2.70;99.90
6377;DHT22;3221;48.858;10.128;2024-01-16T02:31:03;-2.70;99.90
6377;DHT22;3221;48.858;10.128;2024-01-16T02:33:30;-2.70;99.90
6377;DHT22;3221;48.858;10.128;2024-01-16T02:35:57;-2.70;99.90
6377;DHT22;3221;48.858;10.128;2024-01-16T02:38:24;-2.70;99.90
6377;DHT22;3221;48.858;10.128;2024-01-16T02:40:51;-2.60;99.90
6377;DHT22;3221;48.858;10.128;2024-01-16T02:43:18;-2.80;99.90
6377;DHT22;3221;48.858;10.128;2024-01-16T02:45:45;-2.80;99.90
6377;DHT22;3221;48.858;10.128;2024-01-16T02:48:12;-2.70;99.90
6377;DHT22;3221;48.858;10.128;2024-01-16T02:50:39;-2.70;99.90
6377;DHT22;3221;48.858;10.128;2024-01-16T02:53:06;-2.70;99.90
6377;DHT22;3221;48.858;10.128;2024-01-16T02:55:33;-2.70;99.90
6377;DHT22;3221;48.858;10.128;2024-01-16T02:58:00;-2.70;99.90
6377;DHT22;3221;48.858;10.128;2024-01-16T03:00:26;-2.70;99.90
6377;DHT22;3221;48.858;10.128;2024-01-16T03:02:53;-2.80;99.90
6377;DHT22;3221;48.858;10.128;2024-01-16T03:05:21;-2.80;99.90
6377;DHT22;3221;48.858;10.128;2024-01-16T03:07:47;-2.80;99.90
6377;DHT22;3221;48.858;10.128;2024-01-16T03:10:14;-2.80;99.90
6377;DHT22;3221;48.858;10.128;2024-01-16T03:12:41;-2.80;99.90
6377;DHT22;3221;48.858;10.128;2024-01-16T03:15:08;-2.80;99.90
6377;DHT22;3221;48.858;10.128;2024-01-16T03:17:36;-2.80;99.90
6377;DHT22;3221;48.858;10.128;2024-01-16T03:20:03;-2.90;99.90
6377;DHT22;3221;48.858;10.128;2024-01-16T03:22:30;-2.80;99.90
6377;DHT22;3221;48.858;10.128;2024-01-16T03:24:57;-2.90;99.90
6377;DHT22;3221;48.858;10.128;2024-01-16T03:27:24;-2.80;99.90
6377;DHT22;3221;48.858;10.128;2024-01-16T03:29:50;-2.80;99.90
6377;DHT22;3221;48.858;10.128;2024-01-16T03:32:17;-2.90;99.90
6377;DHT22;3221;48.858;10.128;2024-01-16T03:34:45;-2.80;99.90
6377;DHT22;3221;48.858;10.128;2024-01-16T03:37:12;-2.80;99.90
6377;DHT22;3221;48.858;10.128;2024-01-16T03:39:39;-2.80;99.90
6377;DHT22;3221;48.858;10.128;2024-01-16T03:42:05;-2.80;99.90
6377;DHT22;3221;48.858;10.128;2024-01-16T03:44:32;-2.80;99.90
6377;DHT22;3221;48.858;10.128;2024-01-16T03:46:59;-2.80;99.90
6377;DHT22;3221;48.858;10.128;2024-01-16T03:49:26;-2.80;99.90
6377;DHT22;3221;48.858;10.128;2024-01-16T03:51:53;-2.80;99.90
6377;DHT22;3221;48.858;10.128;2024-01-16T03:54:20;-2.70;99.90
6377;DHT22;3221;48.858;10.128;2024-01-16T03:56:47;-2.80;99.90
6377;DHT22;3221;48.858;10.128;2024-01-16T03:59:13;-2.80;99.90
6377;DHT22;3221;48.858;10.128;2024-01-16T04:01:40;-2.80;99.90
6377;DHT22;3221;48.858;10.128;2024-01-16T04:04:10;-2.90;99.90
6377;DHT22;3221;48.858;10.128;2024-01-16T04:06:37;-2.90;99.90
6377;DHT22;3221;48.858;10.128;2024-01-16T04:09:04;-2.80;99.90
6377;DHT22;3221;48.858;10.128;2024-01-16T04:11:31;-2.90;99.90
6377;DHT22;3221;48.858;10.128;2024-01-16T04:13:58;-2.90;99.90
6377;DHT22;3221;48.858;10.128;2024-01-16T04:16:25;-2.80;99.90
6377;DHT22;3221;48.858;10.128;2024-01-16T04:18:52;-2.80;99.90
6377;DHT22;3221;48.858;10.128;2024-01-16T04:21:19;-2.90;99.90
6377;DHT22;3221;48.858;10.128;2024-01-16T04:23:46;-2.80;99.90
6377;DHT22;3221;48.858;10.128;2024-01-16T04:26:14;-2.80;99.90
6377;DHT22;3221;48.858;10.128;2024-01-16T04:28:41;-2.80;99.90
6377;DHT22;3221;48.858;10.128;2024-01-16T04:31:09;-2.80;99.90
6377;DHT22;3221;48.858;10.128;2024-01-16T04:33:38;-2.80;99.90
6377;DHT22;3221;48.858;10.128;2024-01-16T04:36:06;-2.80;99.90
6377;DHT22;3221;48.858;10.128;2024-01-16T04:38:33;-2.80;99.90
6377;DHT22;3221;48.858;10.128;2024-01-16T04:41:03;-2.80;99.90
6377;DHT22;3221;48.858;10.128;2024-01-16T04:43:31;-2.70;99.90
6377;DHT22;3221;48.858;10.128;2024-01-16T04:45:57;-2.80;99.90
6377;DHT22;3221;48.858;10.128;2024-01-16T04:48:28;-2.90;99.90
6377;DHT22;3221;48.858;10.128;2024-01-16T04:50:55;-2.90;99.90
6377;DHT22;3221;48.858;10.128;2024-01-16T04:53:22;-2.90;99.90
6377;DHT22;3221;48.858;10.128;2024-01-16T04:55:50;-2.90;99.90
6377;DHT22;3221;48.858;10.128;2024-01-16T04:58:17;-2.90;99.90
6377;DHT22;3221;48.858;10.128;2024-01-16T05:00:45;-2.90;99.90
6377;DHT22;3221;48.858;10.128;2024-01-16T05:03:14;-2.90;99.90
6377;DHT22;3221;48.858;10.128;2024-01-16T05:05:41;-2.90;99.90
6377;DHT22;3221;48.858;10.128;2024-01-16T05:08:08;-3.00;99.90
6377;DHT22;3221;48.858;10.128;2024-01-16T05:10:35;-2.90;99.90
6377;DHT22;3221;48.858;10.128;2024-01-16T05:13:02;-2.90;99.90
6377;DHT22;3221;48.858;10.128;2024-01-16T05:15:29;-3.00;99.90
6377;DHT22;3221;48.858;10.128;2024-01-16T05:17:56;-3.00;99.90
6377;DHT22;3221;48.858;10.128;2024-01-16T05:20:23;-3.00;99.90
6377;DHT22;3221;48.858;10.128;2024-01-16T05:22:50;-3.00;99.90
6377;DHT22;3221;48.858;10.128;2024-01-16T05:25:17;-3.00;99.90
6377;DHT22;3221;48.858;10.128;2024-01-16T05:27:45;-2.90;99.90
6377;DHT22;3221;48.858;10.128;2024-01-16T05:30:12;-3.00;99.90
6377;DHT22;3221;48.858;10.128;2024-01-16T05:32:39;-3.00;99.90
6377;DHT22;3221;48.858;10.128;2024-01-16T05:35:08;-3.10;99.90
6377;DHT22;3221;48.858;10.128;2024-01-16T05:37:36;-3.20;99.90
6377;DHT22;3221;48.858;10.128;2024-01-16T05:40:04;-3.20;99.90
6377;DHT22;3221;48.858;10.128;2024-01-16T05:42:31;-3.20;99.90
6377;DHT22;3221;48.858;10.128;2024-01-16T05:44:57;-3.00;99.90
6377;DHT22;3221;48.858;10.128;2024-01-16T05:47:24;-2.90;99.90
6377;DHT22;3221;48.858;10.128;2024-01-16T05:49:54;-3.00;99.90
6377;DHT22;3221;48.858;10.128;2024-01-16T05:52:22;-3.10;99.90
6377;DHT22;3221;48.858;10.128;2024-01-16T05:54:49;-3.20;99.90
6377;DHT22;3221;48.858;10.128;2024-01-16T05:57:16;-3.30;99.90
6377;DHT22;3221;48.858;10.128;2024-01-16T05:59:43;-3.30;99.90
6377;DHT22;3221;48.858;10.128;2024-01-16T06:02:10;-3.30;99.90
6377;DHT22;3221;48.858;10.128;2024-01-16T06:04:37;-3.30;99.90
6377;DHT22;3221;48.858;10.128;2024-01-16T06:07:04;-3.20;99.90
6377;DHT22;3221;48.858;10.128;2024-01-16T06:09:38;-3.10;99.90
6377;DHT22;3221;48.858;10.128;2024-01-16T06:12:07;-3.00;99.90
6377;DHT22;3221;48.858;10.128;2024-01-16T06:14:34;-3.00;99.90
6377;DHT22;3221;48.858;10.128;2024-01-16T06:17:01;-3.00;99.90
6377;DHT22;3221;48.858;10.128;2024-01-16T06:19:29;-3.10;99.90
6377;DHT22;3221;48.858;10.128;2024-01-16T06:21:56;-3.10;99.90
6377;DHT22;3221;48.858;10.128;2024-01-16T06:24:23;-3.20;99.90
6377;DHT22;3221;48.858;10.128;2024-01-16T06:26:50;-3.20;99.90
6377;DHT22;3221;48.858;10.128;2024-01-16T06:29:17;-3.20;99.90
6377;DHT22;3221;48.858;10.128;2024-01-16T06:31:57;-3.10;99.90
6377;DHT22;3221;48.858;10.128;2024-01-16T06:34:24;-3.20;99.90
6377;DHT22;3221;48.858;10.128;2024-01-16T06:36:51;-3.20;99.90
6377;DHT22;3221;48.858;10.128;2024-01-16T06:39:18;-3.20;99.90
6377;DHT22;3221;48.858;10.128;2024-01-16T06:41:45;-3.20;99.90
6377;DHT22;3221;48.858;10.128;2024-01-16T06:44:12;-3.20;99.90
6377;DHT22;3221;48.858;10.128;2024-01-16T06:46:39;-3.30;99.90
6377;DHT22;3221;48.858;10.128;2024-01-16T06:49:05;-3.30;99.90
6377;DHT22;3221;48.858;10.128;2024-01-16T06:51:33;-3.40;99.90
6377;DHT22;3221;48.858;10.128;2024-01-16T06:54:00;-3.50;99.90
6377;DHT22;3221;48.858;10.128;2024-01-16T06:56:27;-3.50;99.90
6377;DHT22;3221;48.858;10.128;2024-01-16T06:58:54;-3.50;99.90
6377;DHT22;3221;48.858;10.128;2024-01-16T07:01:20;-3.40;99.90
6377;DHT22;3221;48.858;10.128;2024-01-16T07:03:47;-3.40;99.90
6377;DHT22;3221;48.858;10.128;2024-01-16T07:06:14;-3.50;99.90
6377;DHT22;3221;48.858;10.128;2024-01-16T07:08:41;-3.50;99.90
6377;DHT22;3221;48.858;10.128;2024-01-16T07:11:08;-3.50;99.90
6377;DHT22;3221;48.858;10.128;2024-01-16T07:13:40;-3.50;99.90
6377;DHT22;3221;48.858;10.128;2024-01-16T07:16:09;-3.50;99.90
6377;DHT22;3221;48.858;10.128;2024-01-16T07:18:38;-3.60;99.90
6377;DHT22;3221;48.858;10.128;2024-01-16T07:21:19;-3.60;99.90
6377;DHT22;3221;48.858;10.128;2024-01-16T07:23:47;-3.60;99.90
6377;DHT22;3221;48.858;10.128;2024-01-16T07:26:14;-3.60;99.90
6377;DHT22;3221;48.858;10.128;2024-01-16T07:28:41;-3.60;99.90
6377;DHT22;3221;48.858;10.128;2024-01-16T07:31:08;-3.60;99.90
6377;DHT22;3221;48.858;10.128;2024-01-16T07:33:36;-3.60;99.90
6377;DHT22;3221;48.858;10.128;2024-01-16T07:36:03;-3.60;99.90
6377;DHT22;3221;48.858;10.128;2024-01-16T07:38:30;-3.60;99.90
6377;DHT22;3221;48.858;10.128;2024-01-16T07:40:58;-3.70;99.90
6377;DHT22;3221;48.858;10.128;2024-01-16T07:43:25;-3.50;99.90
6377;DHT22;3221;48.858;10.128;2024-01-16T07:45:52;-3.50;99.90
6377;DHT22;3221;48.858;10.128;2024-01-16T07:48:18;-3.60;99.90
6377;DHT22;3221;48.858;10.128;2024-01-16T07:50:45;-3.60;99.90
6377;DHT22;3221;48.858;10.128;2024-01-16T07:53:13;-3.60;99.90
6377;DHT22;3221;48.858;10.128;2024-01-16T07:55:40;-3.60;99.90
6377;DHT22;3221;48.858;10.128;2024-01-16T07:58:07;-3.70;99.90
6377;DHT22;3221;48.858;10.128;2024-01-16T08:00:34;-3.40;99.90
6377;DHT22;3221;48.858;10.128;2024-01-16T08:03:01;-3.50;99.90
6377;DHT22;3221;48.858;10.128;2024-01-16T08:05:28;-3.60;99.90
6377;DHT22;3221;48.858;10.128;2024-01-16T08:07:57;-3.50;99.90
6377;DHT22;3221;48.858;10.128;2024-01-16T08:10:24;-3.60;99.90
6377;DHT22;3221;48.858;10.128;2024-01-16T08:12:51;-3.60;99.90
6377;DHT22;3221;48.858;10.128;2024-01-16T08:15:18;-3.60;99.90
6377;DHT22;3221;48.858;10.128;2024-01-16T08:17:45;-3.00;99.90
6377;DHT22;3221;48.858;10.128;2024-01-16T08:20:12;-3.20;99.90
6377;DHT22;3221;48.858;10.128;2024-01-16T08:22:39;-3.40;99.90
6377;DHT22;3221;48.858;10.128;2024-01-16T08:25:06;-3.10;99.90
6377;DHT22;3221;48.858;10.128;2024-01-16T08:27:34;-3.10;99.90
6377;DHT22;3221;48.858;10.128;2024-01-16T08:30:01;-3.20;99.90
6377;DHT22;3221;48.858;10.128;2024-01-16T08:32:27;-3.30;99.90
6377;DHT22;3221;48.858;10.128;2024-01-16T08:34:54;-3.40;99.90
6377;DHT22;3221;48.858;10.128;2024-01-16T08:37:21;-3.50;99.90
6377;DHT22;3221;48.858;10.128;2024-01-16T08:39:48;-3.30;99.90
6377;DHT22;3221;48.858;10.128;2024-01-16T08:42:15;-3.40;99.90
6377;DHT22;3221;48.858;10.128;2024-01-16T08:44:42;-3.40;99.90
6377;DHT22;3221;48.858;10.128;2024-01-16T08:47:09;-3.50;99.90
6377;DHT22;3221;48.858;10.128;2024-01-16T08:49:36;-3.30;99.90
6377;DHT22;3221;48.858;10.128;2024-01-16T08:52:05;-3.40;99.90
6377;DHT22;3221;48.858;10.128;2024-01-16T08:54:32;-3.40;99.90
6377;DHT22;3221;48.858;10.128;2024-01-16T08:56:59;-3.30;99.90
6377;DHT22;3221;48.858;10.128;2024-01-16T08:59:26;-3.40;99.90
6377;DHT22;3221;48.858;10.128;2024-01-16T09:01:53;-3.40;99.90
6377;DHT22;3221;48.858;10.128;2024-01-16T09:04:20;-3.40;99.90
6377;DHT22;3221;48.858;10.128;2024-01-16T09:06:46;-3.40;99.90
6377;DHT22;3221;48.858;10.128;2024-01-16T09:09:14;-3.30;99.90
6377;DHT22;3221;48.858;10.128;2024-01-16T09:11:42;-3.20;99.90
6377;DHT22;3221;48.858;10.128;2024-01-16T09:14:09;-3.20;99.90
6377;DHT22;3221;48.858;10.128;2024-01-16T09:16:36;-3.20;99.90
6377;DHT22;3221;48.858;10.128;2024-01-16T09:19:03;-3.30;99.90
6377;DHT22;3221;48.858;10.128;2024-01-16T09:21:30;-3.00;99.90
6377;DHT22;3221;48.858;10.128;2024-01-16T09:23:57;-3.00;99.90
6377;DHT22;3221;48.858;10.128;2024-01-16T09:26:24;-3.00;99.90
6377;DHT22;3221;48.858;10.128;2024-01-16T09:28:51;-3.20;99.90
6377;DHT22;3221;48.858;10.128;2024-01-16T09:31:18;-3.20;99.90
6377;DHT22;3221;48.858;10.128;2024-01-16T09:33:44;-3.20;99.90
6377;DHT22;3221;48.858;10.128;2024-01-16T09:36:12;-3.20;99.90
6377;DHT22;3221;48.858;10.128;2024-01-16T09:38:38;-3.20;99.90
6377;DHT22;3221;48.858;10.128;2024-01-16T09:41:05;-3.20;99.90
6377;DHT22;3221;48.858;10.128;2024-01-16T09:43:33;-3.10;99.90
6377;DHT22;3221;48.858;10.128;2024-01-16T09:46:01;-3.00;99.90
6377;DHT22;3221;48.858;10.128;2024-01-16T09:48:30;-3.00;99.90
6377;DHT22;3221;48.858;10.128;2024-01-16T09:50:58;-2.70;99.90
6377;DHT22;3221;48.858;10.128;2024-01-16T09:53:26;-2.80;99.90
6377;DHT22;3221;48.858;10.128;2024-01-16T09:55:54;-2.80;99.90
6377;DHT22;3221;48.858;10.128;2024-01-16T09:58:24;-2.90;99.90
6377;DHT22;3221;48.858;10.128;2024-01-16T10:00:52;-2.90;99.90
6377;DHT22;3221;48.858;10.128;2024-01-16T10:03:21;-2.90;99.90
6377;DHT22;3221;48.858;10.128;2024-01-16T10:05:48;-2.90;99.90
6377;DHT22;3221;48.858;10.128;2024-01-16T10:08:15;-2.80;99.90
6377;DHT22;3221;48.858;10.128;2024-01-16T10:10:43;-2.70;99.90
6377;DHT22;3221;48.858;10.128;2024-01-16T10:13:16;-2.50;99.90
6377;DHT22;3221;48.858;10.128;2024-01-16T10:15:44;-2.30;99.90
6377;DHT22;3221;48.858;10.128;2024-01-16T10:18:25;-2.10;99.90
6377;DHT22;3221;48.858;10.128;2024-01-16T10:20:53;-2.00;99.90
6377;DHT22;3221;48.858;10.128;2024-01-16T10:23:28;-2.00;99.90
6377;DHT22;3221;48.858;10.128;2024-01-16T10:26:09;-2.20;99.90
6377;DHT22;3221;48.858;10.128;2024-01-16T10:28:38;-2.40;99.90
6377;DHT22;3221;48.858;10.128;2024-01-16T10:31:10;-2.50;99.90
6377;DHT22;3221;48.858;10.128;2024-01-16T10:33:38;-2.50;99.90
6377;DHT22;3221;48.858;10.128;2024-01-16T10:36:16;-2.50;99.90
6377;DHT22;3221;48.858;10.128;2024-01-16T10:38:44;-2.50;99.90
6377;DHT22;3221;48.858;10.128;2024-01-16T10:41:17;-2.40;99.90
6377;DHT22;3221;48.858;10.128;2024-01-16T10:43:44;-2.20;99.90
6377;DHT22;3221;48.858;10.128;2024-01-16T10:46:16;-2.10;99.90
6377;DHT22;3221;48.858;10.128;2024-01-16T10:48:44;-2.30;99.90
6377;DHT22;3221;48.858;10.128;2024-01-16T10:51:14;-2.40;99.90
6377;DHT22;3221;48.858;10.128;2024-01-16T10:53:43;-2.30;99.90
6377;DHT22;3221;48.858;10.128;2024-01-16T10:56:11;-2.30;99.90
6377;DHT22;3221;48.858;10.128;2024-01-16T10:58:41;-2.30;99.90
6377;DHT22;3221;48.858;10.128;2024-01-16T11:01:14;-2.00;99.90
6377;DHT22;3221;48.858;10.128;2024-01-16T11:03:46;-1.90;99.90
6377;DHT22;3221;48.858;10.128;2024-01-16T11:06:16;-1.90;99.90
6377;DHT22;3221;48.858;10.128;2024-01-16T11:08:50;-2.10;99.90
6377;DHT22;3221;48.858;10.128;2024-01-16T11:11:18;-2.00;99.90
6377;DHT22;3221;48.858;10.128;2024-01-16T11:13:46;-2.10;99.90
6377;DHT22;3221;48.858;10.128;2024-01-16T11:16:13;-2.20;99.90
6377;DHT22;3221;48.858;10.128;2024-01-16T11:18:40;-2.30;99.90
6377;DHT22;3221;48.858;10.128;2024-01-16T11:21:12;-2.20;99.90
6377;DHT22;3221;48.858;10.128;2024-01-16T11:23:44;-2.20;99.90
6377;DHT22;3221;48.858;10.128;2024-01-16T11:26:35;-2.20;99.90
6377;DHT22;3221;48.858;10.128;2024-01-16T11:29:33;-2.30;99.90
6377;DHT22;3221;48.858;10.128;2024-01-16T11:32:01;-2.30;99.90
6377;DHT22;3221;48.858;10.128;2024-01-16T11:37:29;-2.30;99.90
6377;DHT22;3221;48.858;10.128;2024-01-16T11:42:49;-2.30;99.90
6377;DHT22;3221;48.858;10.128;2024-01-16T11:48:16;-2.20;99.90
6377;DHT22;3221;48.858;10.128;2024-01-16T11:50:43;-2.10;99.90
6377;DHT22;3221;48.858;10.128;2024-01-16T11:53:11;-2.20;99.90
6377;DHT22;3221;48.858;10.128;2024-01-16T12:01:14;-1.90;99.90
6377;DHT22;3221;48.858;10.128;2024-01-16T12:03:42;-2.00;99.90
6377;DHT22;3221;48.858;10.128;2024-01-16T12:06:10;-2.10;99.90
6377;DHT22;3221;48.858;10.128;2024-01-16T12:08:37;-2.10;99.90
6377;DHT22;3221;48.858;10.128;2024-01-16T12:11:04;-2.10;99.90
6377;DHT22;3221;48.858;10.128;2024-01-16T12:13:31;-2.20;99.90
6377;DHT22;3221;48.858;10.128;2024-01-16T12:16:03;-2.10;99.90
6377;DHT22;3221;48.858;10.128;2024-01-16T12:18:32;-1.90;99.90
6377;DHT22;3221;48.858;10.128;2024-01-16T12:21:10;-1.90;99.90
6377;DHT22;3221;48.858;10.128;2024-01-16T12:23:38;-1.90;99.90
6377;DHT22;3221;48.858;10.128;2024-01-16T12:26:24;-1.90;99.90
6377;DHT22;3221;48.858;10.128;2024-01-16T12:28:54;-1.90;99.90
6377;DHT22;3221;48.858;10.128;2024-01-16T12:31:29;-1.90;99.90
6377;DHT22;3221;48.858;10.128;2024-01-16T12:34:06;-1.90;99.90
6377;DHT22;3221;48.858;10.128;2024-01-16T12:36:36;-1.60;99.90
6377;DHT22;3221;48.858;10.128;2024-01-16T12:39:03;-1.70;99.90
6377;DHT22;3221;48.858;10.128;2024-01-16T12:41:36;-1.70;99.90
6377;DHT22;3221;48.858;10.128;2024-01-16T12:44:09;-1.70;99.90
6377;DHT22;3221;48.858;10.128;2024-01-16T12:46:56;-1.70;99.90
6377;DHT22;3221;48.858;10.128;2024-01-16T12:49:23;-1.70;99.90
6377;DHT22;3221;48.858;10.128;2024-01-16T12:51:51;-1.70;99.90
6377;DHT22;3221;48.858;10.128;2024-01-16T12:54:19;-1.70;99.90
6377;DHT22;3221;48.858;10.128;2024-01-16T12:56:58;-1.60;99.90
6377;DHT22;3221;48.858;10.128;2024-01-16T12:59:27;-1.60;99.90
6377;DHT22;3221;48.858;10.128;2024-01-16T13:01:56;-1.60;99.90
6377;DHT22;3221;48.858;10.128;2024-01-16T13:04:23;-1.50;99.90
6377;DHT22;3221;48.858;10.128;2024-01-16T13:06:50;-1.50;99.90
6377;DHT22;3221;48.858;10.128;2024-01-16T13:09:17;-1.60;99.90
6377;DHT22;3221;48.858;10.128;2024-01-16T13:11:54;-1.70;99.90
6377;DHT22;3221;48.858;10.128;2024-01-16T13:14:25;-1.60;99.90
6377;DHT22;3221;48.858;10.128;2024-01-16T13:16:53;-1.60;99.90
6377;DHT22;3221;48.858;10.128;2024-01-16T13:19:23;-1.70;99.90
6377;DHT22;3221;48.858;10.128;2024-01-16T13:21:51;-1.70;99.90
6377;DHT22;3221;48.858;10.128;2024-01-16T13:24:18;-1.80;99.90
6377;DHT22;3221;48.858;10.128;2024-01-16T13:26:49;-1.70;99.90
6377;DHT22;3221;48.858;10.128;2024-01-16T13:29:16;-1.80;99.90
6377;DHT22;3221;48.858;10.128;2024-01-16T13:31:44;-1.80;99.90
6377;DHT22;3221;48.858;10.128;2024-01-16T13:34:11;-1.80;99.90
6377;DHT22;3221;48.858;10.128;2024-01-16T13:36:39;-1.80;99.90
6377;DHT22;3221;48.858;10.128;2024-01-16T13:39:26;-1.80;99.90
6377;DHT22;3221;48.858;10.128;2024-01-16T13:41:53;-1.80;99.90
6377;DHT22;3221;48.858;10.128;2024-01-16T13:44:20;-1.80;99.90
6377;DHT22;3221;48.858;10.128;2024-01-16T13:46:47;-1.80;99.90
6377;DHT22;3221;48.858;10.128;2024-01-16T13:49:31;-1.80;99.90
6377;DHT22;3221;48.858;10.128;2024-01-16T13:52:00;-1.80;99.90
6377;DHT22;3221;48.858;10.128;2024-01-16T13:54:27;-1.80;99.90
6377;DHT22;3221;48.858;10.128;2024-01-16T13:56:54;-1.60;99.90
6377;DHT22;3221;48.858;10.128;2024-01-16T13:59:33;-1.70;99.90
6377;DHT22;3221;48.858;10.128;2024-01-16T14:02:01;-1.70;99.90
6377;DHT22;3221;48.858;10.128;2024-01-16T14:04:29;-1.70;99.90
6377;DHT22;3221;48.858;10.128;2024-01-16T14:06:56;-1.70;99.90
6377;DHT22;3221;48.858;10.128;2024-01-16T14:09:39;-1.70;99.90
6377;DHT22;3221;48.858;10.128;2024-01-16T14:12:08;-1.70;99.90
6377;DHT22;3221;48.858;10.128;2024-01-16T14:14:36;-1.70;99.90
6377;DHT22;3221;48.858;10.128;2024-01-16T14:17:05;-1.80;99.90
6377;DHT22;3221;48.858;10.128;2024-01-16T14:19:34;-1.70;99.90
6377;DHT22;3221;48.858;10.128;2024-01-16T14:22:02;-1.80;99.90
6377;DHT22;3221;48.858;10.128;2024-01-16T14:24:29;-1.70;99.90
6377;DHT22;3221;48.858;10.128;2024-01-16T14:26:56;-1.50;99.90
6377;DHT22;3221;48.858;10.128;2024-01-16T14:29:25;-1.70;99.90
6377;DHT22;3221;48.858;10.128;2024-01-16T14:31:56;-1.80;99.90
6377;DHT22;3221;48.858;10.128;2024-01-16T14:34:25;-1.80;99.90
6377;DHT22;3221;48.858;10.128;2024-01-16T14:36:52;-1.90;99.90
6377;DHT22;3221;48.858;10.128;2024-01-16T14:39:20;-1.80;99.90
6377;DHT22;3221;48.858;10.128;2024-01-16T14:41:53;-1.90;99.90
6377;DHT22;3221;48.858;10.128;2024-01-16T14:44:20;-1.80;99.90
6377;DHT22;3221;48.858;10.128;2024-01-16T14:46:47;-1.80;99.90
6377;DHT22;3221;48.858;10.128;2024-01-16T14:49:19;-1.80;99.90
6377;DHT22;3221;48.858;10.128;2024-01-16T14:51:46;-1.80;99.90
6377;DHT22;3221;48.858;10.128;2024-01-16T14:54:13;-1.70;99.90
6377;DHT22;3221;48.858;10.128;2024-01-16T14:56:40;-1.70;99.90
6377;DHT22;3221;48.858;10.128;2024-01-16T14:59:07;-1.70;99.90
6377;DHT22;3221;48.858;10.128;2024-01-16T15:01:40;-1.50;99.90
6377;DHT22;3221;48.858;10.128;2024-01-16T15:04:07;-1.50;99.90
6377;DHT22;3221;48.858;10.128;2024-01-16T15:06:34;-1.20;99.90
6377;DHT22;3221;48.858;10.128;2024-01-16T15:09:02;-1.50;99.90
6377;DHT22;3221;48.858;10.128;2024-01-16T15:11:29;-1.60;99.90
6377;DHT22;3221;48.858;10.128;2024-01-16T15:13:56;-1.60;99.90
6377;DHT22;3221;48.858;10.128;2024-01-16T15:16:25;-1.50;99.90
6377;DHT22;3221;48.858;10.128;2024-01-16T15:18:53;-1.50;99.90
6377;DHT22;3221;48.858;10.128;2024-01-16T15:21:22;-1.60;99.90
6377;DHT22;3221;48.858;10.128;2024-01-16T15:23:49;-1.60;99.90
6377;DHT22;3221;48.858;10.128;2024-01-16T15:26:16;-1.60;99.90
6377;DHT22;3221;48.858;10.128;2024-01-16T15:28:47;-1.20;99.90
6377;DHT22;3221;48.858;10.128;2024-01-16T15:31:16;-1.10;99.90
6377;DHT22;3221;48.858;10.128;2024-01-16T15:33:44;-0.90;99.90
6377;DHT22;3221;48.858;10.128;2024-01-16T15:36:11;-1.10;99.90
6377;DHT22;3221;48.858;10.128;2024-01-16T15:38:38;-1.10;99.90
6377;DHT22;3221;48.858;10.128;2024-01-16T15:41:05;-1.10;99.90
6377;DHT22;3221;48.858;10.128;2024-01-16T15:43:32;-1.20;99.90
6377;DHT22;3221;48.858;10.128;2024-01-16T15:46:00;-1.20;99.90
6377;DHT22;3221;48.858;10.128;2024-01-16T15:48:27;-1.30;99.90
6377;DHT22;3221;48.858;10.128;2024-01-16T15:51:00;-1.30;99.90
6377;DHT22;3221;48.858;10.128;2024-01-16T15:53:27;-1.30;99.90
6377;DHT22;3221;48.858;10.128;2024-01-16T15:55:54;-1.40;99.90
6377;DHT22;3221;48.858;10.128;2024-01-16T15:58:21;-1.50;99.90
6377;DHT22;3221;48.858;10.128;2024-01-16T16:00:48;-1.70;99.90
6377;DHT22;3221;48.858;10.128;2024-01-16T16:03:15;-1.80;99.90
6377;DHT22;3221;48.858;10.128;2024-01-16T16:05:42;-1.80;99.90